Frederike Selmer — V7QY8 — position and weather

sailwx.info

Track history (hours):
 
Tides and Currents Weather Stations Pressure Air Temp Water Temp Dewpoint Dewpoint Depression Visibility Wind Speed Wind Dir Waves Ship Positions

Frederike Selmer

Last reported at 2014-Jul-23 18:27 UTC. Time now 2014-Aug-02 00:33 UTC.
Position N 33°40' E 026°56'.
Warning: this ship's position is 9 days out of date.

Length 188 m; draft 9.3 m.

Type: Cargo ship. MMSI: 538090377.

Date/timePositionNaut miles runAvg speedWind from/ knotsBaromVisibWave heightAir tempDewpointWater temp
2014-Jul-23 18:27N 33°40' E 026°56'5212.1
2014-Jul-23 14:09N 33°18' E 027°52'3611.9
2014-Jul-23 11:09N 33°04' E 028°31'711.8
2014-Jul-23 10:32N 33°01' E 028°39'1211.9
2014-Jul-23 09:33N 32°56' E 028°52'1212.1
2014-Jul-23 08:33N 32°51' E 029°05'1212.0
2014-Jul-23 07:33N 32°46' E 029°18'1412.8
2014-Jul-23 06:27N 32°40' E 029°33'1213.1
2014-Jul-23 05:33N 32°36' E 029°46'1612.5
2014-Jul-23 04:16N 32°29' E 030°04'912.4
2014-Jul-23 03:33N 32°26' E 030°13'1212.4
2014-Jul-23 02:33N 32°21' E 030°27'1212.2
2014-Jul-23 01:33N 32°16' E 030°40'1312.1
2014-Jul-23 00:26N 32°10' E 030°54'1112.1
2014-Jul-22 23:34N 32°06' E 031°06'1212.0
2014-Jul-22 22:34N 32°01' E 031°19'1212.1
2014-Jul-22 21:33N 31°57' E 031°32'1412.0
2014-Jul-22 20:23N 31°51' E 031°47'1011.5
2014-Jul-22 19:31N 31°46' E 031°57'1111.4
2014-Jul-22 18:34N 31°39' E 032°07'1111.4
2014-Jul-22 17:34N 31°31' E 032°17'9 9.5
2014-Jul-22 16:34N 31°24' E 032°24'10 9.9
2014-Jul-22 15:34N 31°14' E 032°21'9 7.9
2014-Jul-22 14:27N 31°06' E 032°18'  
Track history (hours):
 
Tides and Currents Weather Stations Pressure Air Temp Water Temp Dewpoint Dewpoint Depression Visibility Wind Speed Wind Dir Waves Ship Positions

Frederike Selmer

Last reported at 2014-Jul-23 18:27 UTC. Time now 2014-Aug-02 00:33 UTC.
Position N 33°40' E 026°56'.
Warning: this ship's position is 9 days out of date.

Length 188 m; draft 9.3 m.

Type: Cargo ship. MMSI: 538090377.

Date/timePositionNaut miles runAvg speedWind from/ knotsBaromVisibWave heightAir tempDewpointWater temp
2014-Jul-23 18:27N 33°40' E 026°56'5212.1
2014-Jul-23 14:09N 33°18' E 027°52'3611.9
2014-Jul-23 11:09N 33°04' E 028°31'711.8
2014-Jul-23 10:32N 33°01' E 028°39'1211.9
2014-Jul-23 09:33N 32°56' E 028°52'1212.1
2014-Jul-23 08:33N 32°51' E 029°05'1212.0
2014-Jul-23 07:33N 32°46' E 029°18'1412.8
2014-Jul-23 06:27N 32°40' E 029°33'1213.1
2014-Jul-23 05:33N 32°36' E 029°46'1612.5
2014-Jul-23 04:16N 32°29' E 030°04'912.4
2014-Jul-23 03:33N 32°26' E 030°13'1212.4
2014-Jul-23 02:33N 32°21' E 030°27'1212.2
2014-Jul-23 01:33N 32°16' E 030°40'1312.1
2014-Jul-23 00:26N 32°10' E 030°54'1112.1
2014-Jul-22 23:34N 32°06' E 031°06'1212.0
2014-Jul-22 22:34N 32°01' E 031°19'1212.1
2014-Jul-22 21:33N 31°57' E 031°32'1412.0
2014-Jul-22 20:23N 31°51' E 031°47'1011.5
2014-Jul-22 19:31N 31°46' E 031°57'1111.4
2014-Jul-22 18:34N 31°39' E 032°07'1111.4
2014-Jul-22 17:34N 31°31' E 032°17'9 9.5
2014-Jul-22 16:34N 31°24' E 032°24'10 9.9
2014-Jul-22 15:34N 31°14' E 032°21'9 7.9
2014-Jul-22 14:27N 31°06' E 032°18'  

Dump ship's entire track history